Time;durP1;ratioP1;P1;durP2;ratioP2;P2;SDS_P1;SDS_P2;PMS_P1;PMS_P2;Temp;Humidity;BMP_temperature;BMP_pressure;BME280_temperature;BME280_humidity;BME280_pressure;Samples;Min_cycle;Max_cycle;Signal;HPM_P1;HPM_P2
2021/07/23 00:00:46;;;;;;;9.37;7.13;;;;;;;19.90;58.41;100339.74;126660;1090;114317;-81
2021/07/23 00:03:34;;;;;;;;;;;;;;;19.90;58.66;100334.45;126951;1090;100511;-79
2021/07/23 00:06:22;;;;;;;10.70;7.23;;;;;;;19.90;58.49;100330.95;126614;1090;102702;-79
2021/07/23 00:09:10;;;;;;;10.57;6.80;;;;;;;19.90;58.58;100331.80;126613;1090;102837;-79
2021/07/23 00:11:57;;;;;;;8.73;6.80;;;;;;;19.85;58.26;100331.28;126697;1089;102851;-79
2021/07/23 00:14:45;;;;;;;8.77;6.80;;;;;;;19.85;58.56;100331.28;126640;1090;103097;-79
2021/07/23 00:17:34;;;;;;;9.70;7.63;;;;;;;19.82;58.70;100331.50;126641;1090;102855;-79
2021/07/23 00:20:22;;;;;;;10.67;6.63;;;;;;;19.80;58.45;100322.82;126531;1089;114148;-79
2021/07/23 00:23:10;;;;;;;12.17;7.40;;;;;;;19.79;58.44;100325.58;126612;1088;102894;-79
2021/07/23 00:25:58;;;;;;;9.70;7.03;;;;;;;19.80;58.71;100328.11;126501;1090;114416;-79
2021/07/23 00:28:46;;;;;;;10.90;6.77;;;;;;;19.81;58.86;100319.22;126608;1089;102922;-79
2021/07/23 00:31:35;;;;;;;9.00;6.97;;;;;;;19.80;58.99;100328.11;126588;1090;114434;-80
2021/07/23 00:34:23;;;;;;;9.87;7.50;;;;;;;19.79;58.76;100326.42;126696;1090;102867;-80
2021/07/23 00:37:11;;;;;;;11.57;7.60;;;;;;;19.79;59.17;100326.42;126805;1090;114322;-80
2021/07/23 00:40:00;;;;;;;12.77;7.40;;;;;;;19.78;59.17;100324.73;126697;1088;102916;-80
2021/07/23 00:42:49;;;;;;;8.65;7.00;;;;;;;19.77;59.09;100333.63;126600;1090;114489;-79
2021/07/23 00:45:38;;;;;;;13.90;7.57;;;;;;;19.72;58.95;100330.42;126728;1090;104369;-79
2021/07/23 00:48:28;;;;;;;10.00;7.10;;;;;;;19.68;59.13;100328.95;126552;1090;115030;-79
2021/07/23 00:51:17;;;;;;;11.30;7.70;;;;;;;19.70;58.82;100334.98;126814;1089;102889;-79
2021/07/23 00:54:06;;;;;;;11.03;7.37;;;;;;;19.72;59.43;100329.58;126779;1088;102852;-79
2021/07/23 00:56:54;;;;;;;8.43;7.03;;;;;;;19.72;59.04;100334.88;126566;1089;114377;-79
2021/07/23 00:59:43;;;;;;;11.73;8.37;;;;;;;19.72;59.30;100324.29;126646;1089;102938;-79
2021/07/23 01:02:32;;;;;;;10.33;7.70;;;;;;;19.70;58.99;100329.69;126605;1090;114338;-79
2021/07/23 01:05:20;;;;;;;11.53;8.20;;;;;;;19.68;59.42;100323.66;126807;1090;102970;-79
2021/07/23 01:08:08;;;;;;;12.63;8.10;;;;;;;19.65;59.41;100328.32;126743;1090;113377;-79
2021/07/23 01:10:58;;;;;;;9.00;7.37;;;;;;;19.60;59.35;100332.13;126771;1090;102997;-79
2021/07/23 01:14:12;;;;;;;9.87;7.07;;;;;;;19.56;59.21;100324.48;126531;1090;113041;-80
2021/07/23 01:17:01;;;;;;;10.03;7.23;;;;;;;19.55;59.40;100322.80;126749;1090;102975;-80
2021/07/23 01:20:10;;;;;;;10.93;8.53;;;;;;;19.57;59.59;100326.21;126696;1089;114340;-80
2021/07/23 01:23:01;;;;;;;11.60;7.97;;;;;;;19.55;59.42;100328.08;126797;1090;101205;-79
2021/07/23 01:25:51;;;;;;;10.97;7.57;;;;;;;19.55;59.75;100322.80;126619;1089;114800;-80
2021/07/23 01:28:45;;;;;;;10.77;8.33;;;;;;;19.49;59.86;100326.68;126799;1089;102882;-79
2021/07/23 01:31:35;;;;;;;9.50;7.60;;;;;;;19.48;59.79;100324.14;126689;1089;114209;-79
2021/07/23 01:34:23;;;;;;;10.83;7.70;;;;;;;19.43;59.79;100316.52;126711;1088;102821;-79
2021/07/23 01:37:12;;;;;;;10.65;7.75;;;;;;;19.42;59.91;100316.63;126602;1089;114808;-79
2021/07/23 01:40:01;;;;;;;13.10;7.30;;;;;;;19.42;60.03;100312.19;126804;1090;103052;-79
2021/07/23 01:42:49;;;;;;;12.53;8.10;;;;;;;19.40;60.04;100310.60;126630;1090;114635;-79
2021/07/23 01:45:37;;;;;;;14.53;8.13;;;;;;;19.38;60.06;100310.67;126763;1089;100546;-79
2021/07/23 01:48:44;;;;;;;8.67;7.73;;;;;;;19.35;60.15;100307.40;126718;1089;114492;-79
2021/07/23 01:51:38;;;;;;;12.57;8.30;;;;;;;19.30;60.31;100308.56;126777;1090;102850;-79
2021/07/23 01:54:32;;;;;;;13.17;8.80;;;;;;;19.32;60.55;100306.66;126637;1089;114487;-79
2021/07/23 01:57:21;;;;;;;11.33;8.50;;;;;;;19.32;60.65;100304.02;126679;1090;102872;-79
2021/07/23 02:00:12;;;;;;;10.87;8.13;;;;;;;19.32;60.50;100311.10;126810;1089;102921;-79
2021/07/23 02:03:08;;;;;;;10.57;8.20;;;;;;;19.30;60.45;100308.56;126567;1089;114951;-79
2021/07/23 02:05:56;;;;;;;10.63;8.00;;;;;;;19.33;60.63;100307.50;126756;1089;101745;-79
2021/07/23 02:08:47;;;;;;;14.53;8.37;;;;;;;19.33;60.58;100305.70;126536;1090;114411;-79
2021/07/23 02:11:36;;;;;;;15.00;8.70;;;;;;;19.32;60.55;100303.17;126585;1089;102934;-79
2021/07/23 02:14:28;;;;;;;15.07;9.43;;;;;;;19.28;60.23;100299.05;126700;1090;114266;-80
2021/07/23 02:17:16;;;;;;;13.27;9.07;;;;;;;19.26;60.62;100295.66;126789;1089;103284;-79
2021/07/23 02:20:07;;;;;;;11.87;8.57;;;;;;;19.25;60.53;100294.81;126764;1090;114231;-80
2021/07/23 02:22:56;;;;;;;11.70;8.00;;;;;;;19.27;60.68;100298.20;126717;1090;102682;-80
2021/07/23 02:25:54;;;;;;;12.20;8.73;;;;;;;19.28;60.84;100294.60;126889;1090;114248;-80
2021/07/23 02:28:42;;;;;;;10.97;8.53;;;;;;;19.26;60.79;100296.50;126811;1088;102906;-80
2021/07/23 02:31:31;;;;;;;11.83;8.30;;;;;;;19.26;60.83;100296.50;126719;1090;114377;-80
2021/07/23 02:34:29;;;;;;;11.80;8.13;;;;;;;19.26;61.04;100295.66;126950;1090;102183;-80
2021/07/23 02:37:17;;;;;;;13.03;9.17;;;;;;;19.26;60.81;100285.08;126525;1089;114969;-79
2021/07/23 02:40:07;;;;;;;12.03;8.57;;;;;;;19.24;60.85;100290.48;126710;1089;105963;-80
2021/07/23 02:42:56;;;;;;;11.27;8.80;;;;;;;19.21;61.11;100293.33;126704;1090;114481;-79
2021/07/23 02:45:44;;;;;;;11.13;7.77;;;;;;;19.23;61.15;100296.72;126784;1090;102852;-79
2021/07/23 02:48:33;;;;;;;11.93;8.13;;;;;;;19.25;61.20;100292.17;126741;1088;102908;-79
2021/07/23 02:51:21;;;;;;;11.13;8.73;;;;;;;19.22;60.91;100289.73;126558;1089;113381;-79
2021/07/23 02:54:09;;;;;;;11.37;9.00;;;;;;;19.26;61.00;100290.38;126675;1088;103001;-79
2021/07/23 02:56:58;;;;;;;11.67;9.23;;;;;;;19.25;61.12;100286.88;126661;1090;113719;-79
2021/07/23 02:59:47;;;;;;;11.17;8.70;;;;;;;19.22;60.98;100299.47;126785;1089;103004;-79
2021/07/23 03:02:36;;;;;;;11.50;8.57;;;;;;;19.18;61.23;100298.80;126722;1088;114585;-79
2021/07/23 03:05:25;;;;;;;13.57;9.47;;;;;;;19.17;61.31;100290.97;126857;1090;102997;-80
2021/07/23 03:08:14;;;;;;;11.33;8.60;;;;;;;19.21;61.33;100293.33;126602;1089;114741;-79
2021/07/23 03:11:12;;;;;;;;;;;;;;;19.22;61.16;100291.53;126762;1090;102857;-79
2021/07/23 03:14:09;;;;;;;14.53;9.07;;;;;;;19.19;61.37;100284.63;126839;1089;103010;-79
2021/07/23 03:17:24;;;;;;;12.80;8.87;;;;;;;19.17;61.40;100286.53;126857;1089;102859;-79
2021/07/23 03:20:17;;;;;;;13.00;8.73;;;;;;;19.16;61.13;100290.13;126665;1089;114409;-80
2021/07/23 03:23:06;;;;;;;13.40;9.17;;;;;;;19.20;61.47;100290.77;126684;1088;102936;-79
2021/07/23 03:26:06;;;;;;;11.60;8.73;;;;;;;19.17;61.40;100288.33;126700;1088;114406;-80
2021/07/23 03:29:03;;;;;;;13.00;8.95;;;;;;;19.15;61.49;100288.44;126842;1088;103013;-79
2021/07/23 03:31:53;;;;;;;11.37;8.27;;;;;;;19.16;61.47;100287.48;126539;1090;114494;-79
2021/07/23 03:34:47;;;;;;;13.73;8.80;;;;;;;19.18;61.67;100282.94;126772;1090;100671;-79
2021/07/23 03:37:44;;;;;;;10.10;8.07;;;;;;;19.22;61.44;100281.80;126551;1089;113451;-79
2021/07/23 03:40:57;;;;;;;11.87;8.80;;;;;;;19.22;61.53;100289.73;126870;1090;102920;-79
2021/07/23 03:43:45;;;;;;;13.20;8.63;;;;;;;19.19;61.61;100292.56;126555;1090;114420;-79
2021/07/23 03:46:49;;;;;;;12.77;8.73;;;;;;;19.20;61.53;100290.77;126906;1090;102899;-80
2021/07/23 03:49:38;;;;;;;15.53;9.13;;;;;;;19.22;61.57;100288.89;126555;1088;114927;-79
2021/07/23 03:52:26;;;;;;;11.25;8.30;;;;;;;19.22;61.56;100287.09;126687;1090;103741;-79
2021/07/23 03:55:38;;;;;;;11.43;9.17;;;;;;;19.22;61.42;100286.25;126756;1089;114470;-79
2021/07/23 03:58:27;;;;;;;12.90;9.17;;;;;;;19.24;61.30;100294.92;126873;1090;102891;-79
2021/07/23 04:01:15;;;;;;;10.63;8.90;;;;;;;19.22;61.39;100288.89;126517;1090;114617;-79
2021/07/23 04:04:08;;;;;;;12.80;9.27;;;;;;;19.22;61.34;100281.80;126702;1090;103033;-79
2021/07/23 04:07:01;;;;;;;12.83;9.03;;;;;;;19.23;61.19;100278.20;126707;1090;102959;-79
2021/07/23 04:09:49;;;;;;;12.77;9.33;;;;;;;19.21;61.49;100282.75;126777;1090;102889;-79
2021/07/23 04:12:39;;;;;;;12.77;9.60;;;;;;;19.26;61.31;100282.44;126677;1090;102876;-79
2021/07/23 04:15:27;;;;;;;11.77;9.27;;;;;;;19.26;61.23;100283.28;126679;1089;113423;-79
2021/07/23 04:18:41;;;;;;;13.40;9.17;;;;;;;19.28;61.63;100283.17;126752;1089;103110;-80
2021/07/23 04:22:07;;;;;;;11.50;9.80;;;;;;;19.28;61.61;100283.17;126733;1088;114320;-79
2021/07/23 04:25:18;;;;;;;11.27;9.43;;;;;;;19.27;61.88;100281.48;126738;1090;103522;-79
2021/07/23 04:28:07;;;;;;;12.50;9.03;;;;;;;19.31;61.49;100288.25;126621;1090;114423;-80
2021/07/23 04:31:19;;;;;;;11.80;9.30;;;;;;;19.36;61.85;100285.29;126954;1090;102933;-79
2021/07/23 04:34:23;;;;;;;16.50;9.60;;;;;;;19.41;61.65;100283.20;126598;1090;114261;-80
2021/07/23 04:37:39;;;;;;;11.87;9.37;;;;;;;19.45;61.51;100271.45;126888;1089;102885;-80
2021/07/23 04:40:53;;;;;;;13.30;9.45;;;;;;;19.47;61.63;100280.13;126768;1090;102657;-79
2021/07/23 04:43:47;;;;;;;16.10;10.73;;;;;;;19.53;61.62;100277.05;126846;1088;102893;-80
2021/07/23 04:46:37;;;;;;;16.83;11.43;;;;;;;19.53;61.36;100277.05;126594;1088;114474;-81
2021/07/23 04:49:28;;;;;;;15.00;10.63;;;;;;;19.56;61.39;100268.93;126737;1090;103105;-79
2021/07/23 04:52:18;;;;;;;16.47;9.73;;;;;;;19.63;61.58;100264.93;126632;1089;114661;-79
2021/07/23 04:55:26;;;;;;;13.20;9.40;;;;;;;19.71;61.65;100259.94;126639;1088;102824;-79
2021/07/23 04:58:34;;;;;;;12.83;9.53;;;;;;;19.79;60.96;100260.27;126707;1090;114539;-81
2021/07/23 05:01:21;;;;;;;11.40;8.93;;;;;;;19.86;61.03;100264.16;126709;1090;102869;-81
2021/07/23 05:04:10;;;;;;;13.53;9.63;;;;;;;19.92;60.94;100258.42;126644;1090;114357;-81
2021/07/23 05:06:57;;;;;;;13.17;9.60;;;;;;;19.97;60.96;100255.47;126810;1090;102868;-81
2021/07/23 05:09:45;;;;;;;11.77;10.17;;;;;;;20.05;60.67;100262.86;126719;1090;114854;-81
2021/07/23 05:12:35;;;;;;;12.97;9.57;;;;;;;20.09;60.45;100259.03;126992;1090;102875;-81
2021/07/23 05:15:23;;;;;;;14.00;9.53;;;;;;;20.12;60.22;100262.33;126578;1090;114328;-80
2021/07/23 05:18:13;;;;;;;12.87;10.03;;;;;;;20.18;60.73;100264.52;126694;1089;102895;-81
2021/07/23 05:21:02;;;;;;;12.93;9.43;;;;;;;20.23;61.01;100266.84;126674;1088;113812;-81
2021/07/23 05:23:50;;;;;;;14.73;9.40;;;;;;;20.29;59.90;100269.06;126768;1089;102907;-81
2021/07/23 05:26:39;;;;;;;12.70;8.75;;;;;;;20.37;60.57;100274.64;126635;1090;113350;-81
2021/07/23 05:29:27;;;;;;;14.30;10.20;;;;;;;20.45;60.14;100272.30;126785;1088;103036;-81
2021/07/23 05:32:15;;;;;;;11.60;9.93;;;;;;;20.48;59.93;100266.80;126763;1089;102657;-80
2021/07/23 05:35:03;;;;;;;13.63;10.40;;;;;;;20.54;60.14;100267.30;126707;1090;114083;-81
2021/07/23 05:37:51;;;;;;;11.43;9.50;;;;;;;20.62;59.72;100267.58;126877;1090;102930;-80
2021/07/23 05:40:39;;;;;;;13.37;10.47;;;;;;;20.68;59.67;100262.69;126688;1089;114445;-81
2021/07/23 05:43:27;;;;;;;13.17;9.57;;;;;;;20.78;59.73;100258.38;126875;1089;102875;-81
2021/07/23 05:46:16;;;;;;;15.00;9.57;;;;;;;20.90;59.69;100261.94;126641;1089;113361;-81
2021/07/23 05:49:05;;;;;;;13.37;9.83;;;;;;;21.00;59.24;100262.92;126769;1089;102866;-81
2021/07/23 05:51:54;;;;;;;15.53;9.20;;;;;;;21.07;59.33;100263.32;126626;1090;114523;-81
2021/07/23 05:54:42;;;;;;;12.70;9.40;;;;;;;21.13;59.12;100258.39;126659;1088;102890;-80
2021/07/23 05:57:29;;;;;;;12.70;9.60;;;;;;;21.26;58.97;100257.50;126556;1090;114540;-81
2021/07/23 06:00:18;;;;;;;12.10;9.50;;;;;;;21.34;58.57;100260.39;126707;1090;102890;-79
2021/07/23 06:03:06;;;;;;;13.90;9.23;;;;;;;21.47;59.12;100261.16;126686;1090;114370;-79
2021/07/23 06:05:54;;;;;;;15.77;9.70;;;;;;;21.57;58.06;100264.80;126678;1090;102965;-81
2021/07/23 06:08:41;;;;;;;15.40;10.53;;;;;;;21.64;58.47;100260.69;126770;1089;113160;-80
2021/07/23 06:11:29;;;;;;;12.57;9.73;;;;;;;21.77;58.11;100254.43;126728;1090;101463;-80
2021/07/23 06:14:17;;;;;;;13.87;9.50;;;;;;;21.91;57.91;100259.50;126914;1090;102869;-79
2021/07/23 06:17:05;;;;;;;11.93;9.17;;;;;;;22.05;57.46;100261.08;126711;1090;114477;-81
2021/07/23 06:19:52;;;;;;;13.47;9.90;;;;;;;22.15;57.21;100256.73;127010;1089;103026;-79
2021/07/23 06:22:41;;;;;;;12.20;9.47;;;;;;;22.28;57.52;100252.13;126603;1089;114419;-80
2021/07/23 06:25:29;;;;;;;11.97;8.97;;;;;;;22.45;56.57;100256.92;126651;1090;102959;-80
2021/07/23 06:28:16;;;;;;;12.73;9.30;;;;;;;22.56;56.82;100254.21;126837;1090;114428;-81
2021/07/23 06:31:05;;;;;;;15.97;10.77;;;;;;;22.76;56.15;100252.56;126773;1090;102175;-81
2021/07/23 06:33:54;;;;;;;16.23;11.07;;;;;;;22.96;55.71;100255.41;126810;1090;114427;-81
2021/07/23 06:36:42;;;;;;;11.60;9.10;;;;;;;23.15;55.48;100255.55;126820;1088;102871;-81
2021/07/23 06:39:30;;;;;;;14.53;9.20;;;;;;;23.37;54.96;100260.77;126693;1089;114117;-81
2021/07/23 06:42:20;;;;;;;15.40;10.43;;;;;;;23.64;54.67;100254.06;126766;1089;102922;-81
2021/07/23 06:45:09;;;;;;;13.30;9.70;;;;;;;23.87;53.88;100255.56;126640;1089;113715;-79
2021/07/23 06:47:56;;;;;;;12.83;9.37;;;;;;;24.05;53.77;100253.95;126663;1089;102891;-80
2021/07/23 06:50:44;;;;;;;13.17;9.10;;;;;;;24.33;53.26;100262.20;126741;1088;114289;-82
2021/07/23 06:53:31;;;;;;;13.77;8.73;;;;;;;24.58;52.22;100259.01;126641;1090;102425;-80
2021/07/23 06:56:19;;;;;;;14.83;8.60;;;;;;;24.85;52.32;100260.16;126796;1089;103473;-79
2021/07/23 06:59:07;;;;;;;13.43;8.47;;;;;;;25.94;52.27;100256.19;126696;1090;114388;-80
2021/07/23 07:01:55;;;;;;;10.23;8.67;;;;;;;26.89;49.17;100245.86;126841;1089;102857;-81
2021/07/23 07:04:44;;;;;;;15.90;8.07;;;;;;;27.50;48.83;100241.50;126842;1090;113436;-81
2021/07/23 07:07:32;;;;;;;12.17;7.63;;;;;;;28.28;46.57;100248.44;126798;1090;102951;-80
2021/07/23 07:10:20;;;;;;;16.27;10.17;;;;;;;28.78;45.33;100239.48;126714;1089;114325;-80
2021/07/23 07:13:08;;;;;;;15.23;11.33;;;;;;;29.31;44.35;100234.63;126816;1090;102897;-80
2021/07/23 07:15:56;;;;;;;11.07;8.00;;;;;;;30.41;42.90;100239.13;126659;1090;113497;-80
2021/07/23 07:18:43;;;;;;;11.45;7.75;;;;;;;31.71;40.93;100238.02;126797;1090;102880;-81
2021/07/23 07:21:33;;;;;;;8.83;7.27;;;;;;;32.85;39.00;100235.66;126785;1089;114222;-81
2021/07/23 07:24:22;;;;;;;7.63;6.83;;;;;;;34.16;36.89;100235.73;126967;1088;102811;-81
2021/07/23 07:27:13;;;;;;;7.83;6.70;;;;;;;35.10;35.12;100226.77;126692;1090;113175;-80
2021/07/23 07:30:00;;;;;;;9.30;6.50;;;;;;;35.93;34.58;100229.78;126827;1089;103007;-80
2021/07/23 07:32:48;;;;;;;13.33;5.80;;;;;;;37.15;32.40;100221.27;126759;1089;113005;-80
2021/07/23 07:35:35;;;;;;;9.70;5.90;;;;;;;37.94;30.73;100224.25;126856;1088;102984;-80
2021/07/23 07:38:23;;;;;;;8.53;6.33;;;;;;;38.70;29.24;100223.64;126656;1088;102870;-80
2021/07/23 07:41:15;;;;;;;8.27;5.40;;;;;;;39.18;27.93;100228.95;126858;1089;112926;-80
2021/07/23 07:44:04;;;;;;;6.37;5.33;;;;;;;39.80;27.19;100218.33;126889;1090;102891;-81
2021/07/23 07:46:51;;;;;;;8.23;5.30;;;;;;;40.48;26.41;100211.22;126917;1090;113527;-79
2021/07/23 07:49:39;;;;;;;7.43;5.30;;;;;;;41.00;25.05;100208.28;126958;1090;102977;-79
2021/07/23 07:52:27;;;;;;;5.70;5.10;;;;;;;41.22;23.88;100214.63;126756;1090;113121;-80
2021/07/23 07:55:14;;;;;;;6.13;4.77;;;;;;;41.06;23.56;100218.22;127045;1090;103006;-81
2021/07/23 07:58:02;;;;;;;6.90;6.10;;;;;;;41.34;23.86;100207.18;126749;1090;114497;-80
2021/07/23 08:00:50;;;;;;;6.57;4.70;;;;;;;41.78;23.96;100209.95;126925;1090;102892;-80
2021/07/23 08:03:38;;;;;;;6.07;5.37;;;;;;;42.27;22.86;100212.73;126793;1090;114467;-80
2021/07/23 08:06:34;;;;;;;5.40;4.80;;;;;;;42.58;22.12;100218.55;127027;1089;102922;-80
2021/07/23 08:09:22;;;;;;;6.80;5.00;;;;;;;42.63;21.18;100213.92;126705;1090;113401;-80
2021/07/23 08:12:09;;;;;;;8.23;4.83;;;;;;;42.52;21.33;100221.22;126912;1089;102849;-81
2021/07/23 08:15:00;;;;;;;6.03;4.70;;;;;;;42.64;21.12;100212.01;126849;1090;112898;-81
2021/07/23 08:17:48;;;;;;;6.70;4.30;;;;;;;42.65;20.78;100213.66;126776;1090;102930;-80
2021/07/23 08:20:37;;;;;;;6.97;4.87;;;;;;;42.47;20.38;100221.15;126875;1089;100861;-81
2021/07/23 08:23:25;;;;;;;5.90;5.30;;;;;;;42.44;20.32;100221.67;126855;1089;114125;-81
2021/07/23 08:26:13;;;;;;;6.50;4.87;;;;;;;42.36;20.45;100218.56;126783;1090;101407;-81
2021/07/23 08:29:01;;;;;;;6.77;5.80;;;;;;;42.18;19.74;100217.84;126845;1090;113255;-80
2021/07/23 08:31:48;;;;;;;6.43;5.37;;;;;;;42.11;20.04;100224.62;126870;1090;103026;-80
2021/07/23 08:34:37;;;;;;;5.53;5.03;;;;;;;42.32;19.95;100212.78;126657;1090;113390;-80
2021/07/23 08:37:24;;;;;;;6.13;4.90;;;;;;;42.14;20.15;100218.62;126938;1090;102735;-81
2021/07/23 08:40:13;;;;;;;8.27;5.80;;;;;;;41.99;20.04;100212.94;126740;1089;114253;-81
2021/07/23 08:43:02;;;;;;;6.70;5.40;;;;;;;41.73;20.17;100218.13;126894;1089;102898;-80
2021/07/23 08:45:50;;;;;;;8.20;5.90;;;;;;;41.80;20.04;100210.53;126728;1090;113396;-80
2021/07/23 08:48:38;;;;;;;6.97;5.30;;;;;;;41.87;19.59;100204.88;126837;1089;102959;-80
2021/07/23 08:51:25;;;;;;;6.60;5.97;;;;;;;41.39;19.62;100211.06;126617;1090;113241;-80
2021/07/23 08:54:13;;;;;;;7.60;5.87;;;;;;;41.02;19.60;100204.22;126963;1089;102981;-80
2021/07/23 08:57:03;;;;;;;9.13;5.10;;;;;;;40.81;20.15;100207.68;126890;1090;101440;-80
2021/07/23 08:59:51;;;;;;;6.70;5.40;;;;;;;40.74;20.01;100209.73;127032;1090;102962;-80
2021/07/23 09:02:59;;;;;;;8.97;5.90;;;;;;;40.56;19.90;100194.39;126877;1088;102901;-80
2021/07/23 09:05:47;;;;;;;6.97;6.17;;;;;;;40.03;20.62;100195.59;126788;1090;114089;-80
2021/07/23 09:08:46;;;;;;;7.20;5.47;;;;;;;40.07;21.24;100199.52;126852;1090;102919;-80
2021/07/23 09:11:34;;;;;;;6.20;5.60;;;;;;;40.15;20.96;100193.65;126772;1090;114264;-80
2021/07/23 09:14:23;;;;;;;8.80;5.83;;;;;;;39.82;20.54;100197.06;126999;1090;102916;-80
2021/07/23 09:17:11;;;;;;;7.47;6.17;;;;;;;38.74;20.82;100199.47;126765;1089;113096;-79
2021/07/23 09:20:03;;;;;;;6.90;5.97;;;;;;;38.04;21.70;100197.30;126835;1090;103170;-80
2021/07/23 09:23:06;;;;;;;7.50;6.20;;;;;;;37.92;22.52;100197.27;126480;1089;114190;-79
2021/07/23 09:25:54;;;;;;;8.30;6.83;;;;;;;38.06;22.80;100197.89;126753;1090;102939;-80
2021/07/23 09:28:44;;;;;;;8.60;6.10;;;;;;;38.19;21.83;100199.64;126609;1090;114319;-80
2021/07/23 09:31:33;;;;;;;9.83;5.90;;;;;;;37.16;22.74;100190.30;126584;1090;102892;-80
2021/07/23 09:34:36;;;;;;;8.90;6.50;;;;;;;37.02;22.47;100194.22;126641;1089;113391;-80
2021/07/23 09:37:24;;;;;;;8.33;6.30;;;;;;;36.58;22.90;100192.45;126714;1090;102933;-80
2021/07/23 09:40:13;;;;;;;8.75;6.30;;;;;;;35.56;23.89;100196.06;126673;1090;113480;-80
2021/07/23 09:43:01;;;;;;;7.77;6.50;;;;;;;34.66;24.53;100201.10;126716;1090;102828;-80
2021/07/23 09:45:49;;;;;;;9.43;7.20;;;;;;;33.99;25.02;100207.36;126582;1090;114444;-79
2021/07/23 09:48:37;;;;;;;8.40;7.00;;;;;;;33.57;26.13;100203.78;126895;1090;102847;-80
2021/07/23 09:51:26;;;;;;;8.17;7.17;;;;;;;33.59;26.75;100196.34;126739;1090;102751;-79
2021/07/23 09:54:15;;;;;;;9.30;7.27;;;;;;;33.60;26.74;100198.00;126754;1090;103098;-79
2021/07/23 09:57:08;;;;;;;9.17;6.70;;;;;;;33.93;26.12;100197.33;126765;1089;102900;-80
2021/07/23 10:00:06;;;;;;;6.37;5.43;;;;;;;34.31;25.59;100188.72;126587;1090;114248;-80
2021/07/23 10:02:55;;;;;;;6.23;5.23;;;;;;;34.86;24.59;100187.59;126864;1089;103456;-80
2021/07/23 10:05:52;;;;;;;7.07;6.10;;;;;;;35.08;24.83;100180.89;126859;1089;114277;-79
2021/07/23 10:08:45;;;;;;;8.03;6.67;;;;;;;35.67;24.54;100181.82;126908;1090;102821;-80
2021/07/23 10:11:32;;;;;;;7.10;6.30;;;;;;;35.69;24.60;100188.69;126774;1089;114370;-80
2021/07/23 10:14:27;;;;;;;8.40;6.70;;;;;;;35.01;24.94;100184.64;126844;1090;102775;-80
2021/07/23 10:17:18;;;;;;;8.87;6.87;;;;;;;34.37;25.10;100182.52;126741;1089;114495;-81
2021/07/23 10:20:08;;;;;;;8.33;6.47;;;;;;;33.59;25.40;100185.52;126717;1090;102863;-80
2021/07/23 10:22:56;;;;;;;8.47;6.90;;;;;;;32.98;26.17;100182.58;126803;1090;113203;-80
2021/07/23 10:25:49;;;;;;;10.97;7.43;;;;;;;32.46;26.80;100177.52;126803;1090;102866;-80
2021/07/23 10:28:46;;;;;;;11.17;7.30;;;;;;;31.96;27.17;100181.96;126537;1090;113601;-79
2021/07/23 10:31:42;;;;;;;8.00;7.10;;;;;;;31.40;28.50;100175.36;127014;1090;103451;-80
2021/07/23 10:34:31;;;;;;;8.50;7.13;;;;;;;30.98;28.87;100174.09;126609;1090;114574;-79
2021/07/23 10:37:28;;;;;;;9.50;7.10;;;;;;;30.67;29.80;100169.64;126692;1090;102872;-79
2021/07/23 10:40:19;;;;;;;13.53;7.67;;;;;;;30.49;30.48;100169.08;126723;1090;114584;-79
2021/07/23 10:43:34;;;;;;;8.87;7.10;;;;;;;30.00;30.32;100161.33;126716;1090;103161;-79
2021/07/23 10:46:48;;;;;;;9.90;6.77;;;;;;;29.68;31.09;100165.01;126882;1090;114477;-79
2021/07/23 10:49:46;;;;;;;9.25;6.70;;;;;;;29.40;31.28;100169.09;126858;1090;103060;-79
2021/07/23 10:52:36;;;;;;;10.90;7.63;;;;;;;29.14;31.20;100169.34;126742;1090;114265;-81
2021/07/23 10:55:29;;;;;;;8.27;6.60;;;;;;;29.09;32.06;100169.03;126674;1088;103025;-79
2021/07/23 10:58:32;;;;;;;9.30;6.50;;;;;;;29.13;32.34;100168.51;126580;1088;113195;-79
2021/07/23 11:01:50;;;;;;;10.27;6.90;;;;;;;28.99;31.82;100161.14;126758;1089;102877;-78
2021/07/23 11:04:39;;;;;;;7.75;6.23;;;;;;;28.82;32.88;100159.45;126569;1090;114494;-79
2021/07/23 11:07:27;;;;;;;9.67;7.17;;;;;;;28.69;33.04;100154.58;126743;1090;102950;-79
2021/07/23 11:10:17;;;;;;;8.20;6.80;;;;;;;28.51;34.16;100148.55;126548;1090;113204;-80
2021/07/23 11:13:10;;;;;;;7.20;6.13;;;;;;;28.45;34.67;100154.59;126646;1090;103167;-79
2021/07/23 11:16:12;;;;;;;8.43;7.30;;;;;;;28.27;34.76;100150.21;127003;1089;114768;-80
2021/07/23 11:19:00;;;;;;;11.13;7.37;;;;;;;28.07;35.25;100154.17;126900;1089;102945;-79
2021/07/23 11:21:49;;;;;;;8.57;7.13;;;;;;;27.86;35.55;100148.42;126800;1090;102888;-80
2021/07/23 11:24:37;;;;;;;7.80;6.80;;;;;;;27.71;35.54;100152.72;126971;1090;104048;-79
2021/07/23 11:27:28;;;;;;;9.13;6.70;;;;;;;27.52;36.15;100149.27;126771;1090;103639;-80
2021/07/23 11:30:25;;;;;;;11.00;7.73;;;;;;;27.34;36.24;100157.38;126616;1090;114267;-81
2021/07/23 11:33:14;;;;;;;9.33;7.20;;;;;;;27.02;36.32;100155.34;126596;1088;102877;-81
2021/07/23 11:36:02;;;;;;;11.50;7.27;;;;;;;26.62;36.19;100157.69;126657;1090;114277;-79
2021/07/23 11:39:04;;;;;;;9.57;6.83;;;;;;;26.23;36.36;100160.64;126639;1089;103023;-80
2021/07/23 11:42:06;;;;;;;8.27;6.43;;;;;;;25.92;37.04;100157.47;126629;1090;113003;-80
2021/07/23 11:44:59;;;;;;;7.03;6.33;;;;;;;25.62;37.49;100161.24;126815;1089;102680;-80
2021/07/23 11:47:49;;;;;;;9.13;7.07;;;;;;;25.38;37.88;100161.77;126901;1090;114279;-81
2021/07/23 11:50:37;;;;;;;7.73;6.80;;;;;;;25.20;38.25;100161.69;126787;1089;100611;-80
2021/07/23 11:53:27;;;;;;;9.20;7.00;;;;;;;25.07;38.73;100161.16;126678;1089;114273;-80
2021/07/23 11:56:32;;;;;;;10.07;6.40;;;;;;;24.97;38.83;100155.83;126745;1090;103100;-80
2021/07/23 11:59:20;;;;;;;9.73;7.30;;;;;;;24.85;39.32;100156.97;126751;1088;114335;-80
2021/07/23 12:02:08;;;;;;;9.43;6.93;;;;;;;24.75;39.92;100155.28;126747;1090;102820;-80
2021/07/23 12:05:11;;;;;;;8.67;7.23;;;;;;;24.70;39.99;100153.05;126522;1089;114263;-80
2021/07/23 12:08:03;;;;;;;7.13;6.43;;;;;;;24.69;40.21;100160.20;126690;1089;101867;-80
2021/07/23 12:10:56;;;;;;;10.00;6.70;;;;;;;24.73;40.63;100157.25;126527;1090;114347;-80
2021/07/23 12:13:44;;;;;;;6.97;6.20;;;;;;;24.74;40.95;100154.44;126627;1089;102975;-80
2021/07/23 12:16:33;;;;;;;11.10;6.93;;;;;;;24.77;41.33;100154.15;126581;1089;114284;-80
2021/07/23 12:19:22;;;;;;;8.47;6.83;;;;;;;24.78;41.20;100149.69;126670;1089;101896;-80
2021/07/23 12:22:14;;;;;;;7.73;6.80;;;;;;;24.83;41.27;100158.09;126582;1089;103020;-80
2021/07/23 12:25:21;;;;;;;6.97;6.27;;;;;;;24.85;40.95;100156.13;126518;1090;113081;-80
2021/07/23 12:28:13;;;;;;;9.87;6.27;;;;;;;24.93;41.12;100156.23;126702;1089;102858;-80
2021/07/23 12:31:01;;;;;;;9.60;6.53;;;;;;;24.99;41.23;100153.02;126570;1090;114627;-80
2021/07/23 12:34:05;;;;;;;9.33;6.63;;;;;;;25.02;40.83;100152.75;126666;1090;102839;-81
2021/07/23 12:36:53;;;;;;;7.80;6.67;;;;;;;25.08;41.04;100151.33;126590;1090;114314;-79
2021/07/23 12:39:56;;;;;;;9.37;6.70;;;;;;;25.11;41.22;100154.54;126482;1089;102949;-81
2021/07/23 12:42:46;;;;;;;8.23;6.33;;;;;;;25.16;40.72;100156.80;126541;1090;114529;-80
2021/07/23 12:45:34;;;;;;;11.33;6.53;;;;;;;25.22;40.94;100149.04;126481;1090;103333;-81
2021/07/23 12:48:23;;;;;;;6.87;5.93;;;;;;;25.33;40.03;100150.70;126553;1090;114278;-79
2021/07/23 12:51:11;;;;;;;7.03;6.30;;;;;;;25.45;40.05;100144.17;126473;1090;102929;-79
2021/07/23 12:53:59;;;;;;;7.90;6.20;;;;;;;25.58;40.03;100141.17;126607;1089;114273;-79